createdAt,value
2023-03-04T00:00:39.141Z,25.70
2023-03-04T00:03:05.509Z,24.02
2023-03-04T00:05:31.829Z,24.73
2023-03-04T00:07:58.192Z,23.35
2023-03-04T00:10:24.509Z,25.58
2023-03-04T00:12:50.822Z,24.13
2023-03-04T00:15:17.186Z,25.73
2023-03-04T00:17:43.514Z,23.65
2023-03-04T00:20:09.820Z,22.27
2023-03-04T00:22:36.214Z,23.88
2023-03-04T00:25:02.542Z,24.08
2023-03-04T00:27:28.874Z,23.17
2023-03-04T00:29:55.369Z,23.83
2023-03-04T00:32:21.780Z,22.45
2023-03-04T00:34:48.100Z,21.73
2023-03-04T00:37:14.458Z,22.25
2023-03-04T00:39:40.778Z,22.42
2023-03-04T00:42:07.173Z,20.88
2023-03-04T00:44:33.634Z,23.17
2023-03-04T00:47:00.092Z,24.02
2023-03-04T00:49:26.494Z,24.08
2023-03-04T00:51:52.860Z,21.45
2023-03-04T00:54:19.314Z,22.70
2023-03-04T00:56:46.229Z,20.80
2023-03-04T00:59:12.636Z,22.73
2023-03-04T01:01:39.038Z,20.85
2023-03-04T01:04:05.401Z,23.30
2023-03-04T01:06:32.618Z,20.00
2023-03-04T01:08:58.985Z,22.50
2023-03-04T01:11:26.584Z,21.33
2023-03-04T01:13:52.966Z,22.05
2023-03-04T01:16:19.369Z,20.98
2023-03-04T01:18:45.696Z,21.55
2023-03-04T01:21:12.048Z,19.20
2023-03-04T01:23:38.360Z,20.95
2023-03-04T01:26:04.706Z,20.77
2023-03-04T01:28:31.126Z,19.75
2023-03-04T01:30:57.471Z,20.92
2023-03-04T01:33:23.810Z,20.38
2023-03-04T01:35:50.208Z,19.52
2023-03-04T01:38:16.644Z,18.83
2023-03-04T01:40:42.952Z,19.70
2023-03-04T01:43:09.306Z,20.80
2023-03-04T01:45:35.654Z,20.25
2023-03-04T01:48:02.003Z,17.95
2023-03-04T01:50:28.395Z,19.75
2023-03-04T01:52:54.739Z,18.45
2023-03-04T01:55:21.060Z,19.30
2023-03-04T01:57:47.692Z,19.40
2023-03-04T02:00:14.129Z,19.05
2023-03-04T02:02:40.393Z,19.55
2023-03-04T02:05:06.751Z,17.90
2023-03-04T02:07:33.096Z,18.80
2023-03-04T02:10:00.409Z,17.60
2023-03-04T02:12:26.789Z,19.23
2023-03-04T02:14:53.120Z,18.00
2023-03-04T02:17:19.426Z,18.38
2023-03-04T02:19:45.778Z,18.17
2023-03-04T02:22:12.099Z,18.70
2023-03-04T02:24:38.474Z,19.77
2023-03-04T02:27:04.915Z,18.77
2023-03-04T02:29:31.416Z,18.15
2023-03-04T02:31:58.004Z,18.42
2023-03-04T02:34:24.499Z,18.55
2023-03-04T02:36:53.076Z,18.13
2023-03-04T02:39:19.900Z,20.13
2023-03-04T02:41:46.748Z,18.90
2023-03-04T02:44:14.346Z,18.88
2023-03-04T02:46:40.739Z,18.38
2023-03-04T02:49:08.013Z,19.63
2023-03-04T02:51:34.403Z,18.33
2023-03-04T02:54:01.279Z,19.25
2023-03-04T02:56:27.759Z,18.33
2023-03-04T02:58:54.151Z,19.13
2023-03-04T03:01:20.690Z,19.20
2023-03-04T03:03:47.232Z,20.55
2023-03-04T03:06:13.582Z,20.83
2023-03-04T03:08:40.038Z,18.95
2023-03-04T03:11:07.709Z,21.50
2023-03-04T03:13:36.014Z,20.33
2023-03-04T03:16:02.345Z,19.95
2023-03-04T03:18:28.863Z,20.40
2023-03-04T03:20:55.213Z,21.95
2023-03-04T03:23:22.115Z,20.42
2023-03-04T03:25:48.487Z,20.73
2023-03-04T03:28:14.858Z,19.85
2023-03-04T03:30:41.391Z,21.55
2023-03-04T03:33:07.754Z,22.38
2023-03-04T03:35:34.323Z,21.13
2023-03-04T03:38:00.710Z,19.23
2023-03-04T03:40:27.062Z,21.08
2023-03-04T03:42:53.379Z,20.60
2023-03-04T03:45:19.687Z,20.88
2023-03-04T03:47:46.012Z,20.65
2023-03-04T03:50:12.342Z,21.20
2023-03-04T03:52:38.677Z,21.92
2023-03-04T03:55:05.035Z,22.20
2023-03-04T03:57:31.346Z,20.45
2023-03-04T03:59:57.673Z,21.60
2023-03-04T04:02:24.234Z,20.08
2023-03-04T04:04:50.647Z,19.83
2023-03-04T04:07:16.975Z,23.20
2023-03-04T04:09:43.328Z,18.70
2023-03-04T04:12:09.625Z,22.45
2023-03-04T04:14:35.969Z,19.98
2023-03-04T04:17:02.350Z,20.92
2023-03-04T04:19:28.652Z,21.95
2023-03-04T04:21:54.963Z,23.48
2023-03-04T04:24:21.337Z,20.98
2023-03-04T04:26:47.672Z,23.23
2023-03-04T04:29:14.006Z,20.33
2023-03-04T04:31:40.395Z,22.25
2023-03-04T04:34:06.704Z,21.65
2023-03-04T04:36:33.010Z,21.02
2023-03-04T04:38:59.386Z,21.15
2023-03-04T04:41:25.703Z,21.65
2023-03-04T04:43:52.004Z,21.42
2023-03-04T04:46:18.381Z,22.42
2023-03-04T04:48:44.730Z,20.58
2023-03-04T04:51:11.067Z,21.83
2023-03-04T04:53:37.429Z,19.67
2023-03-04T04:56:03.744Z,21.73
2023-03-04T04:58:30.236Z,22.38
2023-03-04T05:00:56.722Z,19.58
2023-03-04T05:03:23.696Z,20.38
2023-03-04T05:05:50.077Z,21.63
2023-03-04T05:08:16.428Z,21.58
2023-03-04T05:10:42.737Z,20.85
2023-03-04T05:13:09.058Z,21.08
2023-03-04T05:15:35.460Z,19.92
2023-03-04T05:18:01.823Z,22.30
2023-03-04T05:20:28.146Z,21.23
2023-03-04T05:22:54.515Z,19.38
2023-03-04T05:25:20.839Z,21.67
2023-03-04T05:27:47.165Z,21.75
2023-03-04T05:30:13.613Z,18.98
2023-03-04T05:32:39.967Z,22.17
2023-03-04T05:35:06.297Z,21.13
2023-03-04T05:37:32.652Z,19.13
2023-03-04T05:39:58.958Z,20.17
2023-03-04T05:42:25.269Z,20.42
2023-03-04T05:44:51.631Z,18.52
2023-03-04T05:47:17.962Z,20.23
2023-03-04T05:49:44.277Z,21.05
2023-03-04T05:52:10.666Z,20.85
2023-03-04T05:54:36.987Z,20.85
2023-03-04T05:57:03.433Z,19.15
2023-03-04T05:59:29.821Z,20.33
2023-03-04T06:01:56.192Z,19.42
2023-03-04T06:04:22.577Z,20.17
2023-03-04T06:06:48.950Z,20.50
2023-03-04T06:09:15.290Z,18.50
2023-03-04T06:11:41.595Z,18.88
2023-03-04T06:14:08.082Z,21.90
2023-03-04T06:16:34.489Z,20.90
2023-03-04T06:19:00.846Z,19.90
2023-03-04T06:21:27.226Z,18.15
2023-03-04T06:23:53.566Z,19.20
2023-03-04T06:26:19.919Z,21.90
2023-03-04T06:28:46.319Z,22.17
2023-03-04T06:31:12.678Z,18.55
2023-03-04T06:33:39.009Z,18.80
2023-03-04T06:36:05.392Z,19.70
2023-03-04T06:38:31.733Z,20.40
2023-03-04T06:40:58.075Z,21.63
2023-03-04T06:43:24.449Z,20.27
2023-03-04T06:45:50.784Z,22.17
2023-03-04T06:48:17.108Z,20.75
2023-03-04T06:50:43.473Z,19.95
2023-03-04T06:53:09.808Z,19.75
2023-03-04T06:55:36.119Z,20.20
2023-03-04T06:58:02.651Z,19.83
2023-03-04T07:00:29.044Z,19.40
2023-03-04T07:02:55.406Z,20.50
2023-03-04T07:05:21.758Z,19.83
2023-03-04T07:07:48.126Z,19.38
2023-03-04T07:10:14.498Z,19.10
2023-03-04T07:12:40.888Z,20.60
2023-03-04T07:15:07.218Z,20.75
2023-03-04T07:17:33.516Z,19.85
2023-03-04T07:19:59.897Z,20.92
2023-03-04T07:22:26.191Z,19.13
2023-03-04T07:24:52.495Z,20.90
2023-03-04T07:27:18.857Z,21.95
2023-03-04T07:29:45.206Z,20.20
2023-03-04T07:32:11.685Z,18.25
2023-03-04T07:34:38.272Z,21.33
2023-03-04T07:37:04.624Z,21.00
2023-03-04T07:39:31.951Z,21.33
2023-03-04T07:41:58.320Z,19.58
2023-03-04T07:44:24.626Z,20.13
2023-03-04T07:46:50.957Z,19.08
2023-03-04T07:49:17.315Z,20.33
2023-03-04T07:51:43.727Z,20.40
2023-03-04T07:54:10.040Z,20.67
2023-03-04T07:56:36.420Z,21.00
2023-03-04T07:59:02.799Z,21.30
2023-03-04T08:01:29.100Z,19.15
2023-03-04T08:03:55.495Z,20.98
2023-03-04T08:06:21.828Z,21.00
2023-03-04T08:08:48.252Z,20.70
2023-03-04T08:11:14.726Z,19.50
2023-03-04T08:13:41.075Z,20.80
2023-03-04T08:16:07.473Z,22.05
2023-03-04T08:18:33.921Z,20.23
2023-03-04T08:21:00.224Z,21.40
2023-03-04T08:23:26.580Z,18.23
2023-03-04T08:25:52.962Z,20.02
2023-03-04T08:28:19.301Z,20.98
2023-03-04T08:30:45.690Z,21.83
2023-03-04T08:33:12.161Z,19.15
2023-03-04T08:35:38.607Z,20.75
2023-03-04T08:38:04.944Z,22.15
2023-03-04T08:40:31.365Z,21.45
2023-03-04T08:42:57.672Z,20.48
2023-03-04T08:45:24.001Z,20.17
2023-03-04T08:47:50.382Z,19.67
2023-03-04T08:50:16.706Z,21.38
2023-03-04T08:52:43.016Z,20.83
2023-03-04T08:55:09.374Z,21.08
2023-03-04T08:57:35.713Z,19.67
2023-03-04T09:00:02.072Z,18.60
2023-03-04T09:02:28.454Z,20.27
2023-03-04T09:04:54.785Z,20.25
2023-03-04T09:07:21.093Z,21.88
2023-03-04T09:09:47.490Z,19.17
2023-03-04T09:12:13.832Z,17.92
2023-03-04T09:14:40.168Z,19.20
2023-03-04T09:17:06.535Z,21.00
2023-03-04T09:19:32.866Z,18.20
2023-03-04T09:21:59.188Z,17.42
2023-03-04T09:24:25.542Z,18.23
2023-03-04T09:26:51.863Z,18.50
2023-03-04T09:29:18.172Z,18.02
2023-03-04T09:31:44.566Z,18.85
2023-03-04T09:34:10.961Z,19.50
2023-03-04T09:36:37.309Z,18.08
2023-03-04T09:39:03.700Z,20.42
2023-03-04T09:41:30.015Z,19.52
2023-03-04T09:43:56.367Z,18.60
2023-03-04T09:46:22.723Z,19.85
2023-03-04T09:48:49.045Z,20.33
2023-03-04T09:51:15.360Z,23.05
2023-03-04T09:53:41.810Z,22.05
2023-03-04T09:56:08.216Z,22.02
2023-03-04T09:58:34.603Z,21.25
2023-03-04T10:01:04.068Z,22.00
2023-03-04T10:03:31.576Z,19.92
2023-03-04T10:05:57.883Z,22.48
2023-03-04T10:08:24.311Z,20.63
2023-03-04T10:10:50.645Z,20.08
2023-03-04T10:13:17.020Z,21.42
2023-03-04T10:15:43.419Z,20.00
2023-03-04T10:18:09.729Z,21.08
2023-03-04T10:20:36.042Z,21.63
2023-03-04T10:23:02.398Z,19.67
2023-03-04T10:25:28.730Z,19.45
2023-03-04T10:27:55.061Z,18.33
2023-03-04T10:30:21.555Z,20.67
2023-03-04T10:32:47.932Z,19.48
2023-03-04T10:35:14.278Z,18.70
2023-03-04T10:37:40.647Z,17.95
2023-03-04T10:40:06.986Z,18.20
2023-03-04T10:42:33.392Z,18.60
2023-03-04T10:44:59.828Z,17.73
2023-03-04T10:47:26.172Z,17.80
2023-03-04T10:49:52.514Z,18.75
2023-03-04T10:52:18.877Z,18.77
2023-03-04T10:54:45.306Z,19.35
2023-03-04T10:57:11.612Z,17.70
2023-03-04T10:59:38.005Z,18.15
2023-03-04T11:02:04.337Z,18.23
2023-03-04T11:04:30.650Z,19.20
2023-03-04T11:06:57.013Z,17.40
2023-03-04T11:09:23.334Z,17.50
2023-03-04T11:11:49.648Z,16.48
2023-03-04T11:14:16.060Z,17.50
2023-03-04T11:16:42.401Z,18.10
2023-03-04T11:19:08.753Z,15.50
2023-03-04T11:21:35.121Z,18.48
2023-03-04T11:24:01.442Z,19.05
2023-03-04T11:26:27.771Z,15.88
2023-03-04T11:28:54.143Z,16.80
2023-03-04T11:31:20.582Z,16.65
2023-03-04T11:33:47.028Z,18.45
2023-03-04T11:36:13.403Z,16.88
2023-03-04T11:38:39.762Z,17.02
2023-03-04T11:41:06.097Z,16.08
2023-03-04T11:43:32.451Z,16.80
2023-03-04T11:45:58.788Z,14.60
2023-03-04T11:48:25.182Z,15.73
2023-03-04T11:50:51.568Z,15.23
2023-03-04T11:53:17.869Z,17.20
2023-03-04T11:55:44.241Z,14.85
2023-03-04T11:58:10.601Z,15.77
2023-03-04T12:00:36.923Z,15.25
2023-03-04T12:03:03.236Z,15.32
2023-03-04T12:05:29.595Z,15.27
2023-03-04T12:07:55.918Z,15.32
2023-03-04T12:10:22.285Z,15.85
2023-03-04T12:12:48.648Z,15.35
2023-03-04T12:15:15.241Z,17.05
2023-03-04T12:17:41.632Z,13.80
2023-03-04T12:20:08.010Z,14.27
2023-03-04T12:22:34.322Z,14.75
2023-03-04T12:25:00.629Z,15.68
2023-03-04T12:27:27.025Z,16.08
2023-03-04T12:29:53.320Z,15.15
2023-03-04T12:32:19.807Z,14.88
2023-03-04T12:34:46.198Z,13.40
2023-03-04T12:37:12.521Z,15.15
2023-03-04T12:39:38.865Z,14.05
2023-03-04T12:42:05.243Z,14.60
2023-03-04T12:44:31.570Z,14.27
2023-03-04T12:46:58.166Z,14.20
2023-03-04T12:49:24.631Z,14.68
2023-03-04T12:51:50.961Z,14.38
2023-03-04T12:54:17.295Z,14.70
2023-03-04T12:56:43.865Z,15.20
2023-03-04T12:59:10.222Z,15.00
2023-03-04T13:01:36.537Z,13.57
2023-03-04T13:04:02.920Z,14.30
2023-03-04T13:06:29.243Z,15.48
2023-03-04T13:08:56.096Z,14.68
2023-03-04T13:11:22.596Z,16.42
2023-03-04T13:13:48.968Z,15.55
2023-03-04T13:16:15.316Z,15.45
2023-03-04T13:18:41.695Z,15.25
2023-03-04T13:21:08.010Z,15.38
2023-03-04T13:23:34.343Z,14.35
2023-03-04T13:26:00.697Z,17.10
2023-03-04T13:28:27.007Z,16.45
2023-03-04T13:30:53.357Z,17.88
2023-03-04T13:33:19.706Z,16.27
2023-03-04T13:35:46.086Z,14.05
2023-03-04T13:38:12.459Z,17.08
2023-03-04T13:40:38.815Z,14.38
2023-03-04T13:43:05.149Z,15.27
2023-03-04T13:45:31.482Z,16.77
2023-03-04T13:47:57.874Z,17.30
2023-03-04T13:50:24.208Z,13.38
2023-03-04T13:52:50.539Z,16.27
2023-03-04T13:55:16.904Z,14.45
2023-03-04T13:57:43.226Z,13.73
2023-03-04T14:00:09.567Z,16.00
2023-03-04T14:02:35.875Z,15.70
2023-03-04T14:05:02.205Z,14.13
2023-03-04T14:07:28.517Z,14.95
2023-03-04T14:09:54.983Z,14.85
2023-03-04T14:12:21.343Z,14.15
2023-03-04T14:14:47.704Z,14.57
2023-03-04T14:17:14.074Z,14.88
2023-03-04T14:19:40.396Z,16.05
2023-03-04T14:22:06.720Z,14.43
2023-03-04T14:24:33.091Z,14.25
2023-03-04T14:26:59.416Z,13.05
2023-03-04T14:29:25.737Z,13.55
2023-03-04T14:31:52.185Z,13.02
2023-03-04T14:34:18.535Z,12.95
2023-03-04T14:36:44.876Z,11.80
2023-03-04T14:39:11.245Z,12.27
2023-03-04T14:41:37.566Z,14.32
2023-03-04T14:44:03.911Z,13.63
2023-03-04T14:46:30.289Z,11.95
2023-03-04T14:48:56.618Z,11.57
2023-03-04T14:51:23.003Z,12.38
2023-03-04T14:53:49.344Z,13.05
2023-03-04T14:56:15.668Z,12.30
2023-03-04T14:58:41.989Z,11.85
2023-03-04T15:01:08.400Z,11.90
2023-03-04T15:03:34.817Z,10.35
2023-03-04T15:06:01.428Z,12.35
2023-03-04T15:08:27.905Z,11.70
2023-03-04T15:10:54.224Z,11.75
2023-03-04T15:13:20.530Z,11.75
2023-03-04T15:15:46.926Z,12.27
2023-03-04T15:18:13.289Z,11.23
2023-03-04T15:20:39.618Z,10.88
2023-03-04T15:23:06.007Z,11.63
2023-03-04T15:25:32.376Z,10.52
2023-03-04T15:28:00.520Z,11.93
2023-03-04T15:30:28.805Z,11.85
2023-03-04T15:32:55.275Z,10.45
2023-03-04T15:35:21.602Z,11.20
2023-03-04T15:37:47.987Z,10.82
2023-03-04T15:40:14.312Z,12.10
2023-03-04T15:42:40.653Z,10.95
2023-03-04T15:45:07.005Z,12.25
2023-03-04T15:47:33.394Z,11.85
2023-03-04T15:49:59.744Z,11.70
2023-03-04T15:52:26.129Z,12.73
2023-03-04T15:54:52.444Z,12.82
2023-03-04T15:57:18.763Z,11.98
2023-03-04T15:59:45.124Z,11.40
2023-03-04T16:02:11.456Z,12.30
2023-03-04T16:04:37.839Z,12.13
2023-03-04T16:07:04.232Z,12.63
2023-03-04T16:09:30.569Z,13.95
2023-03-04T16:11:56.900Z,11.20
2023-03-04T16:14:23.266Z,11.60
2023-03-04T16:16:49.585Z,14.02
2023-03-04T16:19:15.918Z,11.45
2023-03-04T16:21:42.280Z,12.35
2023-03-04T16:24:08.604Z,11.15
2023-03-04T16:26:34.929Z,11.82
2023-03-04T16:29:01.285Z,12.43
2023-03-04T16:31:27.655Z,11.63
2023-03-04T16:33:54.103Z,12.27
2023-03-04T16:36:20.531Z,11.73
2023-03-04T16:38:46.912Z,11.15
2023-03-04T16:41:13.241Z,11.25
2023-03-04T16:43:39.639Z,11.40
2023-03-04T16:46:06.068Z,12.65
2023-03-04T16:48:32.400Z,12.10
2023-03-04T16:50:58.775Z,12.63
2023-03-04T16:53:25.097Z,11.02
2023-03-04T16:55:51.452Z,10.77
2023-03-04T16:58:17.816Z,12.95
2023-03-04T17:00:44.134Z,11.23
2023-03-04T17:03:10.494Z,11.70
2023-03-04T17:05:36.894Z,11.05
2023-03-04T17:08:03.200Z,10.57
2023-03-04T17:10:29.527Z,11.07
2023-03-04T17:12:55.918Z,10.73
2023-03-04T17:15:22.231Z,10.25
2023-03-04T17:17:48.649Z,11.00
2023-03-04T17:20:15.094Z,10.68
2023-03-04T17:22:41.419Z,10.07
2023-03-04T17:25:07.724Z,11.80
2023-03-04T17:27:34.096Z,11.35
2023-03-04T17:30:00.414Z,11.68
2023-03-04T17:32:26.796Z,10.35
2023-03-04T17:34:53.196Z,10.90
2023-03-04T17:37:19.524Z,10.98
2023-03-04T17:39:45.902Z,11.68
2023-03-04T17:42:12.322Z,10.00
2023-03-04T17:44:38.631Z,11.05
2023-03-04T17:47:05.024Z,11.65
2023-03-04T17:49:31.452Z,10.70
2023-03-04T17:51:57.752Z,10.65
2023-03-04T17:54:24.145Z,10.85
2023-03-04T17:56:50.483Z,10.52
2023-03-04T17:59:16.789Z,9.25
2023-03-04T18:01:43.189Z,10.85
2023-03-04T18:04:09.551Z,10.40
2023-03-04T18:06:35.878Z,10.60
2023-03-04T18:09:02.434Z,10.93
2023-03-04T18:11:28.878Z,11.50
2023-03-04T18:13:56.636Z,12.05
2023-03-04T18:16:23.278Z,10.18
2023-03-04T18:18:49.798Z,11.30
2023-03-04T18:21:16.094Z,11.45
2023-03-04T18:23:42.413Z,11.52
2023-03-04T18:26:08.785Z,11.40
2023-03-04T18:28:35.094Z,10.10
2023-03-04T18:31:01.421Z,11.05
2023-03-04T18:33:27.795Z,13.88
2023-03-04T18:35:54.131Z,10.93
2023-03-04T18:38:20.452Z,10.20
2023-03-04T18:40:46.823Z,10.73
2023-03-04T18:43:13.138Z,10.45
2023-03-04T18:45:39.461Z,10.88
2023-03-04T18:48:05.843Z,11.50
2023-03-04T18:50:32.154Z,10.70
2023-03-04T18:52:58.489Z,10.85
2023-03-04T18:55:24.875Z,10.55
2023-03-04T18:57:51.210Z,11.10
2023-03-04T19:00:17.537Z,9.73
2023-03-04T19:02:43.945Z,10.23
2023-03-04T19:05:10.286Z,10.43
2023-03-04T19:07:36.620Z,10.10
2023-03-04T19:10:02.999Z,10.73
2023-03-04T19:12:29.347Z,10.43
2023-03-04T19:14:55.723Z,10.90
2023-03-04T19:17:22.104Z,9.98
2023-03-04T19:19:48.456Z,11.35
2023-03-04T19:22:14.777Z,10.43
2023-03-04T19:24:41.179Z,11.15
2023-03-04T19:27:07.481Z,9.63
2023-03-04T19:29:33.794Z,11.25
2023-03-04T19:32:00.263Z,9.63
2023-03-04T19:34:26.607Z,10.65
2023-03-04T19:36:52.942Z,10.05
2023-03-04T19:39:19.295Z,10.88
2023-03-04T19:41:45.605Z,10.80
2023-03-04T19:44:11.935Z,10.60
2023-03-04T19:46:38.307Z,10.60
2023-03-04T19:49:04.668Z,10.82
2023-03-04T19:51:30.988Z,10.60
2023-03-04T19:53:57.414Z,10.90
2023-03-04T19:56:23.792Z,9.85
2023-03-04T19:58:50.188Z,9.57
2023-03-04T20:01:16.612Z,10.82
2023-03-04T20:03:42.921Z,9.65
2023-03-04T20:06:09.295Z,8.73
2023-03-04T20:08:38.236Z,10.43
2023-03-04T20:11:04.799Z,9.73
2023-03-04T20:13:31.108Z,11.27
2023-03-04T20:15:57.530Z,10.82
2023-03-04T20:18:23.898Z,11.23
2023-03-04T20:20:50.229Z,12.15
2023-03-04T20:23:16.609Z,10.88
2023-03-04T20:25:42.930Z,12.18
2023-03-04T20:28:09.239Z,10.80
2023-03-04T20:30:35.598Z,11.85
2023-03-04T20:33:01.908Z,10.73
2023-03-04T20:35:28.268Z,11.75
2023-03-04T20:37:54.664Z,9.77
2023-03-04T20:40:20.970Z,11.60
2023-03-04T20:42:47.288Z,11.73
2023-03-04T20:45:13.790Z,11.25
2023-03-04T20:47:40.188Z,10.98
2023-03-04T20:50:06.551Z,10.32
2023-03-04T20:52:32.936Z,11.00
2023-03-04T20:54:59.469Z,12.15
2023-03-04T20:57:25.795Z,11.00
2023-03-04T20:59:52.174Z,11.25
2023-03-04T21:02:18.483Z,10.73
2023-03-04T21:04:44.827Z,11.05
2023-03-04T21:07:11.246Z,10.70
2023-03-04T21:09:37.558Z,11.00
2023-03-04T21:12:03.886Z,10.77
2023-03-04T21:14:30.259Z,11.20
2023-03-04T21:16:56.709Z,11.15
2023-03-04T21:19:23.070Z,11.15
2023-03-04T21:21:49.439Z,10.40
2023-03-04T21:24:15.813Z,10.95
2023-03-04T21:26:42.141Z,10.90
2023-03-04T21:29:08.500Z,11.85
2023-03-04T21:31:34.863Z,9.90
2023-03-04T21:34:01.227Z,10.20
2023-03-04T21:36:27.624Z,10.60
2023-03-04T21:38:53.993Z,10.98
2023-03-04T21:41:20.322Z,11.00
2023-03-04T21:43:46.690Z,9.63
2023-03-04T21:46:13.063Z,9.77
2023-03-04T21:48:39.421Z,10.70
2023-03-04T21:51:05.815Z,9.50
2023-03-04T21:53:32.176Z,10.85
2023-03-04T21:55:58.493Z,10.05
2023-03-04T21:58:24.868Z,9.63
2023-03-04T22:00:51.321Z,9.93
2023-03-04T22:03:17.677Z,10.43
2023-03-04T22:05:44.031Z,10.30
2023-03-04T22:08:10.335Z,10.00
2023-03-04T22:10:36.652Z,9.45
2023-03-04T22:13:03.028Z,10.27
2023-03-04T22:15:29.347Z,10.45
2023-03-04T22:17:55.874Z,9.57
2023-03-04T22:20:22.367Z,10.73
2023-03-04T22:22:48.709Z,10.20
2023-03-04T22:25:15.033Z,9.65
2023-03-04T22:27:41.417Z,9.85
2023-03-04T22:30:07.906Z,9.95
2023-03-04T22:32:34.319Z,9.98
2023-03-04T22:35:00.734Z,9.15
2023-03-04T22:37:27.097Z,9.48
2023-03-04T22:39:53.500Z,9.60
2023-03-04T22:42:19.883Z,9.18
2023-03-04T22:44:46.228Z,9.48
2023-03-04T22:47:12.556Z,10.45
2023-03-04T22:49:38.927Z,9.20
2023-03-04T22:52:05.248Z,9.32
2023-03-04T22:54:31.548Z,10.23
2023-03-04T22:56:57.944Z,9.05
2023-03-04T22:59:24.324Z,9.70
2023-03-04T23:01:50.642Z,8.40
2023-03-04T23:04:17.020Z,10.43
2023-03-04T23:06:43.342Z,9.13
2023-03-04T23:09:09.762Z,9.35
2023-03-04T23:11:36.244Z,10.32
2023-03-04T23:14:02.570Z,10.13
2023-03-04T23:16:28.898Z,9.00
2023-03-04T23:18:57.130Z,9.77
2023-03-04T23:21:25.478Z,8.98
2023-03-04T23:23:51.847Z,8.80
2023-03-04T23:26:18.225Z,9.52
2023-03-04T23:28:44.575Z,9.60
2023-03-04T23:31:10.942Z,9.73
2023-03-04T23:33:37.355Z,9.10
2023-03-04T23:36:03.723Z,9.70
2023-03-04T23:38:30.036Z,9.32
2023-03-04T23:40:56.421Z,9.65
2023-03-04T23:43:22.738Z,9.15
2023-03-04T23:45:49.104Z,10.07
2023-03-04T23:48:15.511Z,8.80
2023-03-04T23:50:41.823Z,8.27
2023-03-04T23:53:08.132Z,9.63
2023-03-04T23:55:34.521Z,8.85
2023-03-04T23:58:00.849Z,9.02
